createdAt,value
2016-12-23T00:00:06.452Z,97.81
2016-12-23T00:00:28.216Z,97.75
2016-12-23T00:00:53.006Z,97.75
2016-12-23T00:01:14.754Z,97.79
2016-12-23T00:01:36.493Z,97.79
2016-12-23T00:03:04.610Z,97.71
2016-12-23T00:03:26.375Z,97.69
2016-12-23T00:04:22.134Z,97.79
2016-12-23T00:05:31.266Z,98.03
2016-12-23T00:05:53.201Z,98.04
2016-12-23T00:06:17.921Z,97.96
2016-12-23T00:06:44.464Z,97.89
2016-12-23T00:07:44.237Z,97.68
2016-12-23T00:08:12.728Z,97.61
2016-12-23T00:08:35.466Z,97.68
2016-12-23T00:09:01.971Z,97.88
2016-12-23T00:09:31.478Z,98.03
2016-12-23T00:09:56.842Z,98.05
2016-12-23T00:10:48.943Z,98.09
2016-12-23T00:11:17.454Z,98.03
2016-12-23T00:12:10.490Z,98.14
2016-12-23T00:12:58.726Z,98.33
2016-12-23T00:14:16.967Z,98.29
2016-12-23T00:14:46.358Z,98.32
2016-12-23T00:15:17.644Z,98.33
2016-12-23T00:15:43.966Z,98.31
2016-12-23T00:16:05.713Z,98.36
2016-12-23T00:17:20.460Z,98.29
2016-12-23T00:17:46.973Z,98.22
2016-12-23T00:18:08.710Z,98.20
2016-12-23T00:18:38.056Z,98.12
2016-12-23T00:19:07.205Z,98.13
2016-12-23T00:19:33.704Z,98.13
2016-12-23T00:20:26.737Z,98.28
2016-12-23T00:20:52.347Z,98.24
2016-12-23T00:21:14.146Z,98.20
2016-12-23T00:21:38.444Z,98.21
2016-12-23T00:22:02.785Z,98.21
2016-12-23T00:22:29.101Z,98.18
2016-12-23T00:23:59.225Z,98.49
2016-12-23T00:24:25.746Z,98.48
2016-12-23T00:24:52.249Z,98.37
2016-12-23T00:25:13.993Z,98.41
2016-12-23T00:25:40.500Z,98.56
2016-12-23T00:26:07.008Z,98.57
2016-12-23T00:26:31.324Z,98.49
2016-12-23T00:26:53.089Z,98.51
2016-12-23T00:27:20.025Z,98.63
2016-12-23T00:27:51.291Z,98.63
2016-12-23T00:28:44.288Z,98.48
2016-12-23T00:29:13.497Z,98.34
2016-12-23T00:29:37.850Z,98.25
2016-12-23T00:30:52.613Z,98.21
2016-12-23T00:31:19.116Z,98.14
2016-12-23T00:31:43.620Z,98.10
2016-12-23T00:32:07.934Z,98.14
2016-12-23T00:32:29.673Z,98.12
2016-12-23T00:32:54.099Z,98.10
2016-12-23T00:33:15.841Z,98.20
2016-12-23T00:33:42.738Z,98.17
2016-12-23T00:34:14.011Z,98.17
2016-12-23T00:44:31.860Z,98.17
2016-12-23T00:44:53.597Z,98.13
2016-12-23T00:45:32.210Z,98.12
2016-12-23T00:46:42.784Z,98.15
2016-12-23T00:48:37.342Z,98.17
2016-12-23T00:49:35.094Z,98.19
2016-12-23T00:49:56.838Z,98.20
2016-12-23T00:50:52.749Z,98.26
2016-12-23T00:51:49.292Z,98.05
2016-12-23T00:52:42.316Z,98.09
2016-12-23T00:54:48.552Z,97.96
2016-12-23T00:55:17.654Z,98.13
2016-12-23T00:55:54.415Z,98.34
2016-12-23T00:56:18.722Z,98.31
2016-12-23T00:56:48.060Z,98.19
2016-12-23T00:57:41.199Z,98.12
2016-12-23T00:58:07.708Z,98.15
2016-12-23T00:58:29.453Z,98.24
2016-12-23T00:59:25.355Z,98.31
2016-12-23T01:00:28.412Z,98.35
2016-12-23T01:00:50.160Z,98.36
2016-12-23T01:01:14.599Z,98.37
2016-12-23T01:01:38.950Z,98.40
2016-12-23T01:02:00.703Z,98.43
2016-12-23T01:02:22.446Z,98.43
2016-12-23T01:02:44.196Z,98.45
2016-12-23T01:03:05.933Z,98.45
2016-12-23T01:03:32.437Z,98.61
2016-12-23T01:04:26.449Z,98.75
2016-12-23T01:04:48.186Z,98.69
2016-12-23T01:05:09.933Z,98.66
2016-12-23T01:05:59.190Z,98.69
2016-12-23T01:06:20.927Z,98.58
2016-12-23T01:06:42.665Z,98.55
2016-12-23T01:07:05.401Z,98.54
2016-12-23T01:07:28.163Z,98.58
2016-12-23T01:08:25.947Z,98.69
2016-12-23T01:08:47.691Z,98.61
2016-12-23T01:09:09.428Z,98.61
2016-12-23T01:09:35.937Z,98.63
2016-12-23T01:09:57.676Z,98.73
2016-12-23T01:10:24.260Z,98.65
2016-12-23T01:10:46.003Z,98.53
2016-12-23T01:11:07.765Z,98.49
2016-12-23T01:11:37.011Z,98.46
2016-12-23T01:12:03.514Z,98.48
2016-12-23T01:13:02.309Z,98.40
2016-12-23T01:13:28.811Z,98.37
2016-12-23T01:13:51.551Z,98.30
2016-12-23T01:14:14.308Z,98.24
2016-12-23T01:14:36.049Z,98.23
2016-12-23T01:15:07.319Z,98.29
2016-12-23T01:15:29.052Z,98.31
2016-12-23T01:17:04.397Z,98.18
2016-12-23T01:17:57.421Z,98.08
2016-12-23T01:18:22.923Z,98.11
2016-12-23T01:19:24.349Z,98.27
2016-12-23T01:20:13.598Z,98.31
2016-12-23T01:21:10.349Z,98.21
2016-12-23T01:21:36.872Z,98.26
2016-12-23T01:22:03.383Z,98.25
2016-12-23T01:22:26.122Z,98.35
2016-12-23T01:22:59.387Z,98.46
2016-12-23T01:23:55.135Z,98.34
2016-12-23T01:24:22.641Z,98.26
2016-12-23T01:24:54.911Z,98.21
2016-12-23T01:25:26.202Z,98.25
2016-12-23T01:25:57.483Z,98.40
2016-12-23T01:26:38.364Z,98.38
2016-12-23T01:28:18.677Z,98.29
2016-12-23T01:28:42.419Z,98.23
2016-12-23T01:29:08.922Z,98.35
2016-12-23T01:29:57.197Z,98.39
2016-12-23T01:31:24.207Z,98.46
2016-12-23T01:31:54.052Z,98.48
2016-12-23T01:33:07.331Z,98.36
2016-12-23T01:34:05.108Z,98.29
2016-12-23T01:34:36.383Z,98.23
2016-12-23T01:35:08.369Z,98.24
2016-12-23T01:35:30.120Z,98.21
2016-12-23T01:36:21.173Z,98.41
2016-12-23T01:36:42.782Z,98.38
2016-12-23T01:37:35.798Z,98.42
2016-12-23T01:38:02.300Z,98.42
2016-12-23T01:38:57.658Z,98.44
2016-12-23T01:39:55.525Z,98.58
2016-12-23T01:40:22.020Z,98.48
2016-12-23T01:41:44.375Z,98.41
2016-12-23T01:42:18.642Z,98.44
2016-12-23T01:42:40.496Z,98.39
2016-12-23T01:43:11.763Z,98.33
2016-12-23T01:43:42.267Z,98.31
2016-12-23T01:44:05.995Z,98.43
2016-12-23T01:44:32.521Z,98.51
2016-12-23T01:44:54.269Z,98.48
2016-12-23T01:45:55.034Z,98.50
2016-12-23T01:46:17.766Z,98.40
2016-12-23T01:46:40.512Z,98.42
2016-12-23T01:47:08.016Z,98.43
2016-12-23T01:47:29.765Z,98.38
2016-12-23T01:47:56.300Z,98.39
2016-12-23T01:48:22.803Z,98.47
2016-12-23T01:48:46.550Z,98.60
2016-12-23T01:49:09.284Z,98.71
2016-12-23T01:49:31.026Z,98.67
2016-12-23T01:49:57.536Z,98.59
2016-12-23T01:50:28.802Z,98.58
2016-12-23T01:50:50.538Z,98.59
2016-12-23T01:51:12.270Z,98.53
2016-12-23T01:51:36.034Z,98.56
2016-12-23T01:51:59.787Z,98.67
2016-12-23T01:52:22.524Z,98.61
2016-12-23T01:53:10.765Z,98.53
2016-12-23T01:53:39.121Z,98.50
2016-12-23T01:54:05.750Z,98.48
2016-12-23T01:54:33.262Z,98.38
2016-12-23T01:55:21.521Z,98.33
2016-12-23T01:55:52.800Z,98.33
2016-12-23T01:56:14.533Z,98.33
2016-12-23T01:56:36.293Z,98.32
2016-12-23T01:57:00.857Z,98.47
2016-12-23T01:57:22.649Z,98.64
2016-12-23T01:58:37.421Z,98.67
2016-12-23T01:59:03.922Z,98.66
2016-12-23T01:59:25.669Z,98.69
2016-12-23T01:59:47.401Z,98.71
2016-12-23T02:00:50.031Z,98.70
2016-12-23T02:01:16.542Z,98.66
2016-12-23T02:02:48.404Z,98.58
2016-12-23T02:03:14.908Z,98.53
2016-12-23T02:03:39.236Z,98.46
2016-12-23T02:04:00.973Z,98.45
2016-12-23T02:04:22.704Z,98.49
2016-12-23T02:04:49.215Z,98.59
2016-12-23T02:05:16.163Z,98.65
2016-12-23T02:05:42.664Z,98.61
2016-12-23T02:06:04.531Z,98.55
2016-12-23T02:06:33.689Z,98.47
2016-12-23T02:06:56.437Z,98.47
2016-12-23T02:07:52.196Z,98.61
2016-12-23T02:08:40.443Z,98.59
2016-12-23T02:09:38.184Z,98.50
2016-12-23T02:10:04.697Z,98.56
2016-12-23T02:10:29.434Z,98.72
2016-12-23T02:10:58.777Z,98.92
2016-12-23T02:11:25.288Z,98.91
2016-12-23T02:11:47.027Z,98.84
2016-12-23T02:12:08.778Z,98.80
2016-12-23T02:13:06.473Z,98.73
2016-12-23T02:13:31.785Z,98.64
2016-12-23T02:13:58.291Z,98.57
2016-12-23T02:14:20.037Z,98.72
2016-12-23T02:15:09.315Z,98.83
2016-12-23T02:15:37.825Z,98.70
2016-12-23T02:16:00.574Z,98.72
2016-12-23T02:16:27.092Z,98.74
2016-12-23T02:17:20.126Z,98.99
2016-12-23T02:17:46.624Z,99.01
2016-12-23T02:18:34.884Z,98.88
2016-12-23T02:18:58.304Z,98.88
2016-12-23T02:19:20.044Z,98.98
2016-12-23T02:19:46.553Z,99.12
2016-12-23T02:20:09.297Z,99.19
2016-12-23T02:20:35.799Z,99.15
2016-12-23T02:21:00.135Z,99.19
2016-12-23T02:21:21.878Z,99.17
2016-12-23T02:21:50.380Z,99.08
2016-12-23T02:22:16.887Z,99.07
2016-12-23T02:22:49.159Z,99.02
2016-12-23T02:23:10.905Z,98.97
2016-12-23T02:23:37.412Z,98.95
2016-12-23T02:24:30.419Z,98.82
2016-12-23T02:24:54.159Z,98.90
2016-12-23T02:25:16.893Z,99.02
2016-12-23T02:25:39.626Z,99.05
2016-12-23T02:26:32.653Z,99.08
2016-12-23T02:27:03.926Z,99.04
2016-12-23T02:27:30.437Z,99.05
2016-12-23T02:27:55.831Z,99.08
2016-12-23T02:28:22.331Z,99.26
2016-12-23T02:28:44.063Z,99.23
2016-12-23T02:29:10.565Z,99.10
2016-12-23T02:29:32.305Z,98.99
2016-12-23T02:29:58.823Z,98.88
2016-12-23T02:30:25.325Z,98.79
2016-12-23T02:30:48.060Z,98.75
2016-12-23T02:31:09.799Z,98.74
2016-12-23T02:32:00.981Z,98.73
2016-12-23T02:32:27.481Z,98.67
2016-12-23T02:32:51.976Z,98.67
2016-12-23T02:33:18.472Z,98.63
2016-12-23T02:33:40.218Z,98.63
2016-12-23T02:34:32.385Z,98.68
2016-12-23T02:34:56.626Z,98.64
2016-12-23T02:35:18.369Z,98.62
2016-12-23T02:35:40.100Z,98.62
2016-12-23T02:36:06.417Z,98.66
2016-12-23T02:36:35.721Z,98.70
2016-12-23T02:37:02.242Z,98.80
2016-12-23T02:37:31.262Z,99.00
2016-12-23T02:38:27.022Z,98.92
2016-12-23T02:38:51.492Z,98.78
2016-12-23T02:39:20.887Z,98.68
2016-12-23T02:39:55.099Z,98.66
2016-12-23T02:40:17.937Z,98.60
2016-12-23T02:40:42.252Z,98.56
2016-12-23T02:41:08.759Z,98.57
2016-12-23T02:41:37.989Z,98.66
2016-12-23T02:42:38.844Z,98.62
2016-12-23T02:43:20.133Z,98.65
2016-12-23T02:44:42.326Z,98.65
2016-12-23T02:45:08.821Z,98.64
2016-12-23T02:45:31.560Z,98.57
2016-12-23T02:45:53.337Z,98.49
2016-12-23T02:46:22.571Z,98.45
2016-12-23T02:46:49.075Z,98.41
2016-12-23T02:47:10.818Z,98.39
2016-12-23T02:47:35.075Z,98.41
2016-12-23T02:47:56.831Z,98.40
2016-12-23T02:48:18.581Z,98.45
2016-12-23T02:49:11.419Z,98.63
2016-12-23T02:50:04.781Z,98.74
2016-12-23T02:50:55.823Z,98.84
2016-12-23T02:51:17.577Z,98.80
2016-12-23T02:51:39.335Z,98.76
2016-12-23T02:52:05.887Z,98.69
2016-12-23T02:52:27.621Z,98.68
2016-12-23T02:52:49.363Z,98.68
2016-12-23T02:53:11.112Z,98.69
2016-12-23T02:53:32.873Z,98.71
2016-12-23T02:53:59.392Z,98.67
2016-12-23T02:54:21.136Z,98.61
2016-12-23T02:54:47.636Z,98.60
2016-12-23T02:55:09.383Z,98.63
2016-12-23T02:56:02.481Z,98.60
2016-12-23T02:56:27.094Z,98.54
2016-12-23T02:56:48.830Z,98.53
2016-12-23T02:57:10.588Z,98.51
2016-12-23T02:57:37.091Z,98.45
2016-12-23T02:57:58.836Z,98.60
2016-12-23T02:58:25.352Z,98.72
2016-12-23T02:58:47.092Z,98.74
2016-12-23T02:59:08.847Z,98.69
2016-12-23T02:59:30.595Z,98.74
2016-12-23T02:59:55.150Z,98.71
2016-12-23T03:00:19.477Z,98.72
2016-12-23T03:01:10.715Z,98.75
2016-12-23T03:01:35.011Z,98.76
2016-12-23T03:01:56.870Z,98.79
2016-12-23T03:02:23.364Z,98.73
2016-12-23T03:02:45.111Z,98.64
2016-12-23T03:03:12.632Z,98.50
2016-12-23T03:03:38.200Z,98.49
2016-12-23T03:04:04.713Z,98.60
2016-12-23T03:04:29.388Z,98.69
2016-12-23T03:05:27.664Z,98.62
2016-12-23T03:05:52.008Z,98.57
2016-12-23T03:06:13.760Z,98.55
2016-12-23T03:06:35.490Z,98.47
2016-12-23T03:07:26.360Z,98.55
2016-12-23T03:07:48.095Z,98.50
2016-12-23T03:08:44.104Z,98.37
2016-12-23T03:09:08.680Z,98.46
2016-12-23T03:09:33.015Z,98.48
2016-12-23T03:09:54.761Z,98.49
2016-12-23T03:10:21.078Z,98.54
2016-12-23T03:11:53.405Z,98.75
2016-12-23T03:12:22.436Z,98.81
2016-12-23T03:13:18.479Z,98.62
2016-12-23T03:13:40.241Z,98.55
2016-12-23T03:14:07.115Z,98.45
2016-12-23T03:14:36.537Z,98.41
2016-12-23T03:14:59.286Z,98.50
2016-12-23T03:15:55.059Z,98.78
2016-12-23T03:16:24.393Z,98.77
2016-12-23T03:17:25.129Z,98.66
2016-12-23T03:18:03.616Z,98.47
2016-12-23T03:18:36.417Z,98.37
2016-12-23T03:19:03.224Z,98.35
2016-12-23T03:19:39.268Z,98.33
2016-12-23T03:20:01.020Z,98.38
2016-12-23T03:20:54.048Z,98.59
2016-12-23T03:21:15.781Z,98.69
2016-12-23T03:21:37.517Z,98.78
2016-12-23T03:22:02.234Z,98.82
2016-12-23T03:22:28.733Z,98.86
2016-12-23T03:22:55.955Z,98.81
2016-12-23T03:23:17.692Z,98.75
2016-12-23T03:23:44.224Z,98.73
2016-12-23T03:25:14.243Z,98.64
2016-12-23T03:25:40.745Z,98.61
2016-12-23T03:27:14.963Z,98.71
2016-12-23T03:28:07.980Z,98.85
2016-12-23T03:28:34.493Z,98.86
2016-12-23T03:28:56.230Z,98.81
2016-12-23T03:29:17.966Z,98.76
2016-12-23T03:29:42.307Z,98.72
2016-12-23T03:30:08.815Z,98.67
2016-12-23T03:30:30.559Z,98.72
2016-12-23T03:30:57.069Z,98.87
2016-12-23T03:31:29.291Z,98.96
2016-12-23T03:31:51.031Z,98.95
2016-12-23T03:32:17.541Z,98.97
2016-12-23T03:33:35.024Z,98.90
2016-12-23T03:33:59.377Z,98.97
2016-12-23T03:34:25.853Z,98.89
2016-12-23T03:34:52.357Z,98.86
2016-12-23T03:35:40.619Z,98.86
2016-12-23T03:36:07.121Z,98.93
2016-12-23T03:36:36.516Z,98.92
2016-12-23T03:37:10.376Z,98.86
2016-12-23T03:37:36.906Z,98.78
2016-12-23T03:37:58.636Z,98.75
2016-12-23T03:39:01.827Z,98.60
2016-12-23T03:39:28.329Z,98.49
2016-12-23T03:40:16.578Z,98.52
2016-12-23T03:41:09.516Z,98.56
2016-12-23T03:42:09.829Z,98.54
2016-12-23T03:42:36.337Z,98.54
2016-12-23T03:43:03.566Z,98.55
2016-12-23T03:43:27.930Z,98.54
2016-12-23T03:43:49.670Z,98.46
2016-12-23T03:44:11.408Z,98.42
2016-12-23T03:44:33.153Z,98.38
2016-12-23T03:45:26.838Z,98.38
2016-12-23T03:47:22.970Z,98.33
2016-12-23T03:47:59.005Z,98.27
2016-12-23T03:58:47.482Z,98.22
2016-12-23T03:59:38.599Z,98.23
2016-12-23T04:00:02.874Z,98.18
2016-12-23T04:01:29.823Z,98.11
2016-12-23T04:03:24.994Z,98.48
2016-12-23T04:03:57.275Z,98.38
2016-12-23T04:04:57.667Z,98.30
2016-12-23T04:05:19.390Z,98.31
2016-12-23T04:05:48.643Z,98.32
2016-12-23T04:06:44.565Z,98.29
2016-12-23T04:07:15.840Z,98.35
2016-12-23T04:07:54.759Z,98.37
2016-12-23T04:08:16.495Z,98.34
2016-12-23T04:09:19.141Z,98.39
2016-12-23T04:14:29.650Z,98.52
2016-12-23T04:14:58.976Z,98.50
2016-12-23T04:15:23.260Z,98.56
2016-12-23T04:15:49.768Z,98.66
2016-12-23T04:16:12.497Z,98.64
2016-12-23T04:16:36.786Z,98.54
2016-12-23T04:17:03.291Z,98.47
2016-12-23T04:17:51.547Z,98.40
2016-12-23T04:18:13.278Z,98.44
2016-12-23T04:18:35.020Z,98.54
2016-12-23T04:18:56.760Z,98.48
2016-12-23T04:19:23.276Z,98.40
2016-12-23T04:19:45.091Z,98.37
2016-12-23T04:20:18.971Z,98.51
2016-12-23T04:20:43.245Z,98.56
2016-12-23T04:21:12.347Z,98.63
2016-12-23T04:21:36.996Z,98.57
2016-12-23T04:21:59.733Z,98.55
2016-12-23T04:22:24.094Z,98.59
2016-12-23T04:22:45.838Z,98.49
2016-12-23T04:23:12.383Z,98.39
2016-12-23T04:23:36.636Z,98.28
2016-12-23T04:24:03.132Z,98.28
2016-12-23T04:24:59.155Z,98.19
2016-12-23T04:25:25.775Z,98.28
2016-12-23T04:25:52.284Z,98.22
2016-12-23T04:26:16.859Z,98.19
2016-12-23T04:26:38.582Z,98.18
2016-12-23T04:27:12.541Z,98.14
2016-12-23T04:27:34.311Z,98.16
2016-12-23T04:28:00.817Z,98.27
2016-12-23T04:28:27.316Z,98.34
2016-12-23T04:28:51.907Z,98.38
2016-12-23T04:29:42.775Z,98.28
2016-12-23T04:30:09.288Z,98.22
2016-12-23T04:30:31.027Z,98.24
2016-12-23T04:31:05.220Z,98.25
2016-12-23T04:31:32.036Z,98.22
2016-12-23T04:31:58.537Z,98.15
2016-12-23T04:32:20.274Z,98.20
2016-12-23T04:32:44.536Z,98.25
2016-12-23T04:33:11.421Z,98.22
2016-12-23T04:34:04.438Z,98.22
2016-12-23T04:34:30.947Z,98.19
2016-12-23T04:35:22.179Z,98.14
2016-12-23T04:35:46.495Z,98.22
2016-12-23T04:36:08.228Z,98.19
2016-12-23T04:36:39.498Z,98.16
2016-12-23T04:37:01.241Z,98.14
2016-12-23T04:37:22.990Z,98.11
2016-12-23T04:37:44.727Z,98.13
2016-12-23T04:38:06.465Z,98.11
2016-12-23T04:38:28.206Z,98.11
2016-12-23T04:39:00.250Z,98.11
2016-12-23T04:39:24.526Z,98.16
2016-12-23T04:40:29.498Z,98.26
2016-12-23T04:41:22.518Z,98.16
2016-12-23T04:42:40.271Z,98.16
2016-12-23T04:43:02.047Z,98.13
2016-12-23T04:43:23.792Z,98.10
2016-12-23T04:43:50.294Z,98.13
2016-12-23T04:44:12.034Z,98.20
2016-12-23T04:44:33.779Z,98.27
2016-12-23T04:45:00.269Z,98.34
2016-12-23T04:45:22.021Z,98.35
2016-12-23T04:45:44.751Z,98.40
2016-12-23T04:46:11.257Z,98.45
2016-12-23T04:46:33.989Z,98.48
2016-12-23T04:46:57.719Z,98.54
2016-12-23T04:47:20.477Z,98.57
2016-12-23T04:48:15.498Z,98.68
2016-12-23T04:48:42.003Z,98.66
2016-12-23T04:49:09.331Z,98.61
2016-12-23T04:49:32.076Z,98.57
2016-12-23T04:49:56.812Z,98.54
2016-12-23T04:50:53.381Z,98.40
2016-12-23T04:51:20.875Z,98.29
2016-12-23T04:51:42.625Z,98.32
2016-12-23T04:52:05.363Z,98.45
2016-12-23T04:52:27.111Z,98.51
2016-12-23T04:52:54.614Z,98.54
2016-12-23T04:53:25.890Z,98.51
2016-12-23T04:53:50.472Z,98.43
2016-12-23T04:54:43.480Z,98.33
2016-12-23T04:55:32.729Z,98.29
2016-12-23T04:55:59.241Z,98.33
2016-12-23T04:56:20.984Z,98.36
2016-12-23T04:56:42.724Z,98.33
2016-12-23T04:57:09.241Z,98.34
2016-12-23T04:57:30.981Z,98.32
2016-12-23T04:57:53.733Z,98.36
2016-12-23T04:58:20.247Z,98.43
2016-12-23T04:58:51.512Z,98.47
2016-12-23T04:59:13.248Z,98.47
2016-12-23T04:59:35.000Z,98.42
2016-12-23T05:00:23.243Z,98.39
2016-12-23T05:01:42.664Z,98.41
2016-12-23T05:02:04.402Z,98.43
2016-12-23T05:02:29.131Z,98.43
2016-12-23T05:02:55.652Z,98.46
2016-12-23T05:03:17.402Z,98.48
2016-12-23T05:03:39.148Z,98.54
2016-12-23T05:04:05.651Z,98.60
2016-12-23T05:04:54.899Z,98.63
2016-12-23T05:05:21.399Z,98.60
2016-12-23T05:05:43.135Z,98.60
2016-12-23T05:06:09.645Z,98.70
2016-12-23T05:06:37.162Z,98.75
2016-12-23T05:06:58.921Z,98.77
2016-12-23T05:07:25.431Z,98.64
2016-12-23T05:07:51.936Z,98.52
2016-12-23T05:08:13.666Z,98.51
2016-12-23T05:08:40.170Z,98.54
2016-12-23T05:09:07.694Z,98.43
2016-12-23T05:09:29.452Z,98.42
2016-12-23T05:09:55.108Z,98.50
2016-12-23T05:10:16.840Z,98.58
2016-12-23T05:10:39.570Z,98.55
2016-12-23T05:11:02.305Z,98.46
2016-12-23T05:11:25.117Z,98.44
2016-12-23T05:11:46.847Z,98.44
2016-12-23T05:12:09.583Z,98.39
2016-12-23T05:12:32.329Z,98.39
2016-12-23T05:12:58.842Z,98.38
2016-12-23T05:13:25.347Z,98.39
2016-12-23T05:13:47.090Z,98.39
2016-12-23T05:15:04.795Z,98.47
2016-12-23T05:16:06.234Z,98.53
2016-12-23T05:16:35.684Z,98.57
2016-12-23T05:16:59.947Z,98.56
2016-12-23T05:17:29.337Z,98.57
2016-12-23T05:18:29.791Z,98.58
2016-12-23T05:19:25.812Z,98.58
2016-12-23T05:20:28.286Z,98.70
2016-12-23T05:20:54.786Z,98.78
2016-12-23T05:21:17.518Z,98.74
2016-12-23T05:21:46.824Z,98.69
2016-12-23T05:22:13.325Z,98.63
2016-12-23T05:23:31.058Z,98.62
2016-12-23T05:23:52.810Z,98.63
2016-12-23T05:24:14.562Z,98.63
2016-12-23T05:25:07.568Z,98.58
2016-12-23T05:25:29.320Z,98.50
2016-12-23T05:25:51.055Z,98.45
2016-12-23T05:26:17.555Z,98.42
2016-12-23T05:26:44.832Z,98.52
2016-12-23T05:27:14.190Z,98.61
2016-12-23T05:27:38.468Z,98.66
2016-12-23T05:28:04.980Z,98.69
2016-12-23T05:28:32.480Z,98.67
2016-12-23T05:28:58.986Z,98.64
2016-12-23T05:29:20.740Z,98.67
2016-12-23T05:29:42.480Z,98.73
2016-12-23T05:30:08.995Z,98.86
2016-12-23T05:30:30.748Z,98.88
2016-12-23T05:30:57.264Z,98.87
2016-12-23T05:31:53.025Z,98.79
2016-12-23T05:32:29.466Z,98.70
2016-12-23T05:34:22.016Z,98.58
2016-12-23T05:34:44.759Z,98.59
2016-12-23T05:35:18.021Z,98.59
2016-12-23T05:35:44.531Z,98.62
2016-12-23T05:36:06.255Z,98.70
2016-12-23T05:36:28.991Z,98.75
2016-12-23T05:36:51.722Z,98.73
2016-12-23T05:37:17.307Z,98.64
2016-12-23T05:38:13.249Z,98.62
2016-12-23T05:38:39.780Z,98.60
2016-12-23T05:39:06.281Z,98.60
2016-12-23T05:39:32.799Z,98.59
2016-12-23T05:39:55.539Z,98.64
2016-12-23T05:40:28.809Z,98.69
2016-12-23T05:41:18.061Z,98.74
2016-12-23T05:41:42.339Z,98.72
2016-12-23T05:42:30.581Z,98.73
2016-12-23T05:42:54.320Z,98.71
2016-12-23T05:43:17.053Z,98.69
2016-12-23T05:43:38.802Z,98.70
2016-12-23T05:44:02.637Z,98.73
2016-12-23T05:44:51.876Z,98.70
2016-12-23T05:45:15.636Z,98.70
2016-12-23T05:47:16.018Z,98.76
2016-12-23T05:47:42.348Z,98.96
2016-12-23T05:48:05.107Z,99.08
2016-12-23T05:48:27.852Z,99.17
2016-12-23T05:49:01.120Z,99.18
2016-12-23T05:49:23.865Z,99.12
2016-12-23T05:49:50.376Z,98.99
2016-12-23T05:50:49.170Z,98.83
2016-12-23T05:51:15.738Z,98.81
2016-12-23T05:51:40.528Z,98.78
2016-12-23T05:52:02.273Z,98.74
2016-12-23T05:52:28.799Z,98.78
2016-12-23T05:53:27.561Z,98.82
2016-12-23T05:53:55.064Z,98.78
2016-12-23T05:54:22.560Z,98.70
2016-12-23T05:54:54.827Z,98.68
2016-12-23T05:55:21.346Z,98.74
2016-12-23T05:55:52.650Z,98.70
2016-12-23T05:56:15.407Z,98.73
2016-12-23T05:57:14.193Z,98.75
2016-12-23T05:57:40.697Z,98.79
2016-12-23T05:58:36.207Z,98.72
2016-12-23T05:59:02.711Z,98.63
2016-12-23T05:59:25.453Z,98.55
2016-12-23T05:59:50.042Z,98.46
2016-12-23T06:00:16.545Z,98.41
2016-12-23T06:00:41.227Z,98.43
2016-12-23T06:01:10.319Z,98.46
2016-12-23T06:01:41.600Z,98.45
2016-12-23T06:02:10.926Z,98.39
2016-12-23T06:03:09.154Z,98.39
2016-12-23T06:04:06.746Z,98.49
2016-12-23T06:04:31.312Z,98.42
2016-12-23T06:05:00.562Z,98.36
2016-12-23T06:05:29.948Z,98.38
2016-12-23T06:06:25.704Z,98.37
2016-12-23T06:06:49.962Z,98.32
2016-12-23T06:07:14.298Z,98.31
2016-12-23T06:07:41.062Z,98.27
2016-12-23T06:08:02.691Z,98.23
2016-12-23T06:08:29.197Z,98.20
2016-12-23T06:08:51.075Z,98.31
2016-12-23T06:09:20.095Z,98.33
2016-12-23T06:09:41.833Z,98.32
2016-12-23T06:10:10.996Z,98.28
2016-12-23T06:10:45.203Z,98.41
2016-12-23T06:11:11.699Z,98.43
2016-12-23T06:11:38.200Z,98.41
2016-12-23T06:12:07.311Z,98.38
2016-12-23T06:13:38.172Z,98.33
2016-12-23T06:13:59.918Z,98.30
2016-12-23T06:14:21.651Z,98.27
2016-12-23T06:14:57.993Z,98.25
2016-12-23T06:15:24.507Z,98.27
2016-12-23T06:15:55.783Z,98.25
2016-12-23T06:16:30.825Z,98.28
2016-12-23T06:17:35.973Z,98.48
2016-12-23T06:17:57.731Z,98.63
2016-12-23T06:18:22.198Z,98.65
2016-12-23T06:19:22.789Z,98.81
2016-12-23T06:19:47.144Z,98.82
2016-12-23T06:20:42.876Z,98.66
2016-12-23T06:21:07.204Z,98.55
2016-12-23T06:21:33.702Z,98.41
2016-12-23T06:22:00.206Z,98.47
2016-12-23T06:23:03.377Z,98.48
2016-12-23T06:23:25.113Z,98.47
2016-12-23T06:23:51.624Z,98.50
2016-12-23T06:24:25.772Z,98.68
2016-12-23T06:25:26.308Z,98.76
2016-12-23T06:25:52.737Z,98.69
2016-12-23T06:26:19.297Z,98.66
2016-12-23T06:26:51.267Z,98.63
2016-12-23T06:27:19.598Z,98.66
2016-12-23T06:28:24.984Z,98.54
2016-12-23T06:30:09.160Z,98.46
2016-12-23T06:31:15.226Z,98.36
2016-12-23T06:32:08.887Z,98.49
2016-12-23T06:33:09.371Z,98.62
2016-12-23T06:33:31.121Z,98.60
2016-12-23T06:34:03.403Z,98.55
2016-12-23T06:34:29.926Z,98.50
2016-12-23T06:34:59.332Z,98.46
2016-12-23T06:35:25.839Z,98.51
2016-12-23T06:35:47.588Z,98.54
2016-12-23T06:36:40.833Z,98.62
2016-12-23T06:37:05.570Z,98.57
2016-12-23T06:37:53.947Z,98.50
2016-12-23T06:38:15.685Z,98.54
2016-12-23T06:38:42.197Z,98.50
2016-12-23T06:39:04.938Z,98.50
2016-12-23T06:39:36.222Z,98.43
2016-12-23T06:39:57.987Z,98.45
2016-12-23T06:40:24.492Z,98.51
2016-12-23T06:42:20.878Z,98.80
2016-12-23T06:43:28.207Z,98.91
2016-12-23T06:43:59.479Z,98.91
2016-12-23T06:44:21.221Z,98.87
2016-12-23T06:44:53.496Z,98.82
2016-12-23T06:45:56.026Z,98.61
2016-12-23T06:46:22.914Z,98.62
2016-12-23T06:46:50.545Z,98.48
2016-12-23T06:47:16.091Z,98.42
2016-12-23T06:47:43.599Z,98.49
2016-12-23T06:48:10.107Z,98.58
2016-12-23T06:48:32.852Z,98.56
2016-12-23T06:49:26.875Z,98.53
2016-12-23T06:49:55.928Z,98.46
2016-12-23T06:50:23.447Z,98.43
2016-12-23T06:51:22.221Z,98.76
2016-12-23T06:52:10.455Z,98.64
2016-12-23T06:53:08.253Z,98.46
2016-12-23T06:53:37.681Z,98.42
2016-12-23T06:54:41.040Z,98.42
2016-12-23T06:55:02.791Z,98.38
2016-12-23T06:55:39.821Z,98.50
2016-12-23T06:56:11.091Z,98.66
2016-12-23T06:56:53.651Z,98.77
2016-12-23T06:58:22.030Z,98.71
2016-12-23T06:58:48.941Z,98.66
2016-12-23T06:59:18.283Z,98.48
2016-12-23T07:00:16.536Z,98.73
2016-12-23T07:01:52.387Z,98.37
2016-12-23T07:02:18.893Z,98.49
2016-12-23T07:02:45.405Z,98.37
2016-12-23T07:03:09.758Z,98.46
2016-12-23T07:04:07.458Z,98.44
2016-12-23T07:04:38.728Z,98.53
2016-12-23T07:06:03.081Z,98.50
2016-12-23T07:07:05.618Z,98.22
2016-12-23T07:07:28.369Z,98.18
2016-12-23T07:07:52.947Z,98.19
2016-12-23T07:08:19.458Z,98.39
2016-12-23T07:08:41.194Z,98.51
2016-12-23T07:09:02.937Z,98.58
2016-12-23T07:09:24.683Z,98.63
2016-12-23T07:09:46.416Z,98.61
2016-12-23T07:10:09.178Z,98.54
2016-12-23T07:10:30.907Z,98.43
2016-12-23T07:10:52.650Z,98.40
2016-12-23T07:11:14.377Z,98.54
2016-12-23T07:11:36.114Z,98.38
2016-12-23T07:11:57.860Z,98.26
2016-12-23T07:12:24.371Z,98.20
2016-12-23T07:12:50.888Z,98.14
2016-12-23T07:13:12.624Z,98.16
2016-12-23T07:13:34.356Z,98.21
2016-12-23T07:14:00.880Z,98.24
2016-12-23T07:14:22.613Z,98.12
2016-12-23T07:14:44.348Z,98.15
2016-12-23T07:15:06.215Z,98.15
2016-12-23T07:15:27.955Z,98.27
2016-12-23T07:15:49.701Z,98.37
2016-12-23T07:16:11.448Z,98.42
2016-12-23T07:16:33.189Z,98.31
2016-12-23T07:16:54.939Z,98.13
2016-12-23T07:17:16.676Z,98.11
2016-12-23T07:17:38.427Z,98.09
2016-12-23T07:18:00.176Z,98.02
2016-12-23T07:18:21.920Z,98.02
2016-12-23T07:18:43.675Z,98.04
2016-12-23T07:19:05.419Z,98.02
2016-12-23T07:19:27.168Z,97.97
2016-12-23T07:19:48.908Z,97.96
2016-12-23T07:20:10.647Z,97.96
2016-12-23T07:20:32.381Z,97.94
2016-12-23T07:20:54.124Z,97.91
2016-12-23T07:21:15.863Z,97.89
2016-12-23T07:21:37.606Z,97.96
2016-12-23T07:21:59.386Z,98.03
2016-12-23T07:22:21.118Z,97.98
2016-12-23T07:22:47.639Z,97.98
2016-12-23T07:23:09.394Z,97.91
2016-12-23T07:23:31.157Z,98.00
2016-12-23T07:23:52.888Z,98.05
2016-12-23T07:24:14.631Z,97.99
2016-12-23T07:25:07.651Z,97.93
2016-12-23T07:25:35.159Z,98.22
2016-12-23T07:26:01.668Z,98.29
2016-12-23T07:26:23.409Z,98.28
2016-12-23T07:26:45.165Z,98.29
2016-12-23T07:27:07.908Z,98.26
2016-12-23T07:27:29.666Z,98.28
2016-12-23T07:28:03.795Z,98.08
2016-12-23T07:28:28.083Z,98.03
2016-12-23T07:28:49.833Z,98.09
2016-12-23T07:29:12.624Z,98.13
2016-12-23T07:29:40.126Z,98.03
2016-12-23T07:30:11.415Z,97.99
2016-12-23T07:30:37.979Z,98.02